Time;durP1;ratioP1;P1;durP2;ratioP2;P2;SDS_P1;SDS_P2;PMS_P1;PMS_P2;Temp;Humidity;BMP_temperature;BMP_pressure;BME280_temperature;BME280_humidity;BME280_pressure;Samples;Min_cycle;Max_cycle;Signal;HPM_P1;HPM_P2
2021/09/05 00:00:56;;;;;;;13.45;6.35;;;11.50;97.80;;;;;;5096378;28;20024;-86
2021/09/05 00:03:22;;;;;;;10.32;6.07;;;11.50;98.00;;;;;;5095287;28;20035;-86
2021/09/05 00:05:47;;;;;;;10.35;6.55;;;11.50;98.10;;;;;;5093327;28;20025;-86
2021/09/05 00:08:13;;;;;;;13.25;6.70;;;11.50;98.20;;;;;;5095213;28;20028;-87
2021/09/05 00:10:39;;;;;;;13.65;7.70;;;11.50;98.20;;;;;;5095263;28;20473;-88
2021/09/05 00:13:05;;;;;;;14.60;7.95;;;11.60;98.20;;;;;;5095330;28;20404;-86
2021/09/05 00:15:30;;;;;;;14.65;7.78;;;11.60;98.20;;;;;;5095111;28;20024;-87
2021/09/05 00:17:56;;;;;;;14.05;7.90;;;11.60;98.10;;;;;;5095133;28;20482;-86
2021/09/05 00:20:22;;;;;;;13.02;8.07;;;11.70;98.20;;;;;;5094147;28;20101;-86
2021/09/05 00:22:48;;;;;;;13.02;8.00;;;11.70;98.20;;;;;;5075872;28;20032;-86
2021/09/05 00:25:14;;;;;;;13.35;8.00;;;11.70;98.10;;;;;;5075975;28;20066;-86
2021/09/05 00:27:40;;;;;;;14.00;8.18;;;11.60;98.10;;;;;;5074539;28;20032;-86
2021/09/05 00:30:06;;;;;;;12.15;7.30;;;11.60;98.20;;;;;;5074340;28;20029;-86
2021/09/05 00:32:33;;;;;;;14.10;7.28;;;11.60;98.20;;;;;;5073725;28;20393;-86
2021/09/05 00:34:59;;;;;;;12.18;7.80;;;11.50;98.20;;;;;;5074420;28;20016;-86
2021/09/05 00:37:24;;;;;;;15.82;7.93;;;11.50;98.20;;;;;;5074677;28;20533;-86
2021/09/05 00:39:50;;;;;;;14.32;7.50;;;11.40;98.30;;;;;;5075614;28;20047;-87
2021/09/05 00:42:34;;;;;;;15.77;7.47;;;11.50;98.50;;;;;;5074530;28;20052;-87
2021/09/05 00:45:00;;;;;;;12.82;7.50;;;11.50;98.50;;;;;;5074535;28;20020;-87
2021/09/05 00:47:25;;;;;;;12.15;7.63;;;11.50;98.60;;;;;;5074394;28;20028;-87
2021/09/05 00:49:51;;;;;;;10.85;6.88;;;11.50;98.60;;;;;;5075485;28;20111;-87
2021/09/05 00:52:18;;;;;;;10.80;7.03;;;11.60;98.60;;;;;;5084196;28;20024;-87
2021/09/05 00:54:45;;;;;;;11.98;7.10;;;11.70;98.70;;;;;;5081577;28;20062;-87
2021/09/05 00:57:12;;;;;;;10.60;6.57;;;11.70;98.60;;;;;;5074249;28;20037;-86
2021/09/05 00:59:44;;;;;;;9.77;6.63;;;11.80;98.60;;;;;;5075262;28;20375;-87
2021/09/05 01:02:10;;;;;;;12.88;7.30;;;11.80;98.50;;;;;;5073886;28;20059;-87
2021/09/05 01:04:35;;;;;;;9.88;6.65;;;11.80;98.50;;;;;;5074293;28;20395;-87
2021/09/05 01:07:02;;;;;;;10.05;6.55;;;11.80;98.40;;;;;;5076965;28;20020;-87
2021/09/05 01:09:29;;;;;;;11.57;6.63;;;11.70;98.50;;;;;;5094091;28;20114;-87
2021/09/05 01:11:57;;;;;;;14.05;6.38;;;11.70;98.50;;;;;;5094116;28;20024;-87
2021/09/05 01:14:23;;;;;;;10.63;6.50;;;11.70;98.60;;;;;;5095613;28;20413;-87
2021/09/05 01:16:49;;;;;;;10.32;7.07;;;11.60;98.60;;;;;;5095127;28;20069;-87
2021/09/05 01:19:17;;;;;;;10.20;6.32;;;11.60;98.50;;;;;;5093659;28;20028;-86
2021/09/05 01:21:45;;;;;;;9.30;6.07;;;11.50;98.50;;;;;;5093481;28;20040;-86
2021/09/05 01:24:12;;;;;;;9.05;6.22;;;11.40;98.60;;;;;;5093297;28;20111;-86
2021/09/05 01:26:41;;;;;;;10.80;6.20;;;11.40;98.60;;;;;;5095164;28;20020;-86
2021/09/05 01:29:07;;;;;;;10.43;6.50;;;11.30;98.70;;;;;;5093733;28;20027;-87
2021/09/05 01:31:37;;;;;;;9.35;6.35;;;11.20;98.70;;;;;;5093144;28;20074;-86
2021/09/05 01:34:03;;;;;;;8.15;5.88;;;11.20;98.80;;;;;;5094691;28;20076;-87
2021/09/05 01:36:29;;;;;;;9.70;6.53;;;11.20;98.80;;;;;;5093511;28;20031;-86
2021/09/05 01:38:54;;;;;;;11.95;5.65;;;11.10;98.90;;;;;;5081711;28;20024;-86
2021/09/05 01:41:20;;;;;;;12.55;6.63;;;11.10;99.00;;;;;;5074611;28;20021;-86
2021/09/05 01:43:46;;;;;;;10.32;5.97;;;11.00;99.00;;;;;;5073188;28;20048;-86
2021/09/05 01:46:12;;;;;;;11.60;5.88;;;11.00;99.00;;;;;;5073024;28;20020;-86
2021/09/05 01:48:37;;;;;;;9.65;5.75;;;11.00;99.10;;;;;;5074252;28;20562;-86
2021/09/05 01:51:03;;;;;;;9.65;5.32;;;11.00;99.20;;;;;;5073649;28;20086;-86
2021/09/05 01:53:29;;;;;;;7.82;5.15;;;10.90;99.20;;;;;;5077792;28;20028;-87
2021/09/05 01:55:54;;;;;;;8.30;5.50;;;10.90;99.30;;;;;;5093492;28;20466;-86
2021/09/05 01:58:20;;;;;;;10.57;5.63;;;10.90;99.30;;;;;;5094347;28;20464;-86
2021/09/05 02:00:46;;;;;;;9.23;6.10;;;10.90;99.30;;;;;;5093030;28;20078;-86
2021/09/05 02:03:11;;;;;;;8.68;5.40;;;10.90;99.40;;;;;;5094249;28;20020;-86
2021/09/05 02:05:37;;;;;;;10.13;6.07;;;10.90;99.40;;;;;;5094715;28;20546;-86
2021/09/05 02:08:03;;;;;;;10.55;5.93;;;10.90;99.50;;;;;;5094581;28;20450;-86
2021/09/05 02:10:29;;;;;;;8.45;5.75;;;10.90;99.50;;;;;;5075909;28;20482;-86
2021/09/05 02:12:54;;;;;;;9.95;5.50;;;10.80;99.50;;;;;;5072804;28;20116;-86
2021/09/05 02:15:20;;;;;;;8.57;5.80;;;10.80;99.50;;;;;;5072651;28;20032;-86
2021/09/05 02:17:46;;;;;;;9.68;5.65;;;10.80;99.50;;;;;;5072647;28;20035;-85
2021/09/05 02:20:12;;;;;;;9.07;6.15;;;10.70;99.40;;;;;;5072268;28;20512;-86
2021/09/05 02:22:37;;;;;;;10.68;5.97;;;10.70;99.50;;;;;;5074165;28;20013;-86
2021/09/05 02:25:03;;;;;;;8.90;5.93;;;10.70;99.50;;;;;;5082865;28;20038;-86
2021/09/05 02:27:29;;;;;;;10.32;6.00;;;10.80;99.60;;;;;;5094536;28;20028;-86
2021/09/05 02:29:55;;;;;;;9.77;6.50;;;10.80;99.60;;;;;;5093887;28;20439;-86
2021/09/05 02:32:20;;;;;;;10.55;6.60;;;10.90;99.60;;;;;;5092903;28;20028;-86
2021/09/05 02:34:46;;;;;;;12.00;6.85;;;10.90;99.60;;;;;;5092830;28;20057;-85
2021/09/05 02:37:12;;;;;;;12.48;6.22;;;11.00;99.70;;;;;;5092466;28;20032;-86
2021/09/05 02:39:37;;;;;;;10.98;6.90;;;11.00;99.60;;;;;;5090194;28;20029;-85
2021/09/05 02:42:03;;;;;;;8.50;6.00;;;11.10;99.50;;;;;;5074434;28;20518;-86
2021/09/05 02:44:29;;;;;;;12.38;6.93;;;11.00;99.40;;;;;;5077547;28;20021;-86
2021/09/05 02:46:54;;;;;;;11.10;6.88;;;11.00;99.40;;;;;;5077709;28;20031;-86
2021/09/05 02:49:20;;;;;;;11.68;7.05;;;11.00;99.40;;;;;;5077578;28;20055;-86
2021/09/05 02:51:46;;;;;;;10.10;7.13;;;11.00;99.50;;;;;;5077548;28;20031;-86
2021/09/05 02:54:11;;;;;;;11.80;6.82;;;10.90;99.50;;;;;;5076219;28;20025;-86
2021/09/05 02:56:37;;;;;;;10.93;6.70;;;10.90;99.50;;;;;;5076028;28;20028;-85
2021/09/05 02:59:03;;;;;;;9.88;6.32;;;10.90;99.50;;;;;;5076298;28;20021;-86
2021/09/05 03:01:28;;;;;;;12.88;6.93;;;10.80;99.60;;;;;;5076008;28;20039;-86
2021/09/05 03:03:54;;;;;;;11.75;6.72;;;10.80;99.60;;;;;;5077093;28;20017;-86
2021/09/05 03:06:19;;;;;;;11.05;7.07;;;10.80;99.70;;;;;;5077364;28;20020;-86
2021/09/05 03:08:45;;;;;;;13.80;6.97;;;10.70;99.70;;;;;;5075787;28;20035;-86
2021/09/05 03:11:11;;;;;;;12.13;6.63;;;10.70;99.80;;;;;;5076813;28;20064;-86
2021/09/05 03:13:36;;;;;;;14.02;7.43;;;10.70;99.90;;;;;;5075694;28;20032;-86
2021/09/05 03:16:02;;;;;;;13.18;7.18;;;10.70;99.80;;;;;;5075650;28;20024;-86
2021/09/05 03:18:30;;;;;;;11.27;6.75;;;10.70;99.90;;;;;;5076866;28;20028;-85
2021/09/05 03:20:56;;;;;;;14.55;7.13;;;10.70;99.90;;;;;;5075351;28;20056;-86
2021/09/05 03:23:21;;;;;;;9.13;6.53;;;10.60;99.80;;;;;;5075551;28;20123;-86
2021/09/05 03:25:47;;;;;;;13.18;6.75;;;10.60;99.80;;;;;;5077903;28;20040;-86
2021/09/05 03:28:12;;;;;;;10.63;6.65;;;10.60;99.80;;;;;;5095713;28;20016;-86
2021/09/05 03:30:39;;;;;;;12.20;6.82;;;10.60;99.90;;;;;;5097066;28;20028;-86
2021/09/05 03:33:04;;;;;;;11.10;6.63;;;10.50;99.90;;;;;;5095656;28;20047;-86
2021/09/05 03:35:30;;;;;;;13.88;7.28;;;10.50;99.90;;;;;;5095791;28;20032;-86
2021/09/05 03:37:56;;;;;;;10.77;7.03;;;10.50;99.90;;;;;;5095525;28;20032;-85
2021/09/05 03:40:21;;;;;;;13.20;7.00;;;10.50;99.90;;;;;;5096748;28;20024;-86
2021/09/05 03:42:47;;;;;;;10.75;7.15;;;10.50;99.90;;;;;;5079805;28;20455;-86
2021/09/05 03:45:13;;;;;;;11.43;6.85;;;10.50;99.90;;;;;;5076802;28;20027;-86
2021/09/05 03:47:38;;;;;;;10.23;7.22;;;10.50;99.90;;;;;;5075133;28;20139;-86
2021/09/05 03:50:05;;;;;;;15.55;7.45;;;10.50;99.90;;;;;;5075162;28;20091;-86
2021/09/05 03:52:32;;;;;;;11.40;6.53;;;10.50;99.90;;;;;;5074843;28;20032;-86
2021/09/05 03:54:58;;;;;;;9.98;6.22;;;10.50;99.90;;;;;;5075543;28;20033;-87
2021/09/05 03:57:23;;;;;;;10.95;6.57;;;10.60;99.90;;;;;;5083739;28;20073;-87
2021/09/05 03:59:49;;;;;;;10.55;6.65;;;10.60;99.90;;;;;;5096474;28;20024;-87
2021/09/05 04:02:15;;;;;;;10.88;7.15;;;10.80;99.90;;;;;;5096628;28;20024;-88
2021/09/05 04:04:40;;;;;;;10.73;6.60;;;10.90;99.90;;;;;;5095197;28;20070;-87
2021/09/05 04:07:09;;;;;;;13.80;7.45;;;11.00;99.90;;;;;;5095428;28;20020;-88
2021/09/05 04:12:19;;;;;;;11.57;6.28;;;11.30;99.80;;;;;;5095031;28;20085;-87
2021/09/05 04:14:45;;;;;;;8.63;5.78;;;11.40;99.60;;;;;;5095227;28;20028;-89
2021/09/05 04:17:11;;;;;;;10.15;6.00;;;11.50;99.40;;;;;;5096673;28;20028;-89
2021/09/05 04:19:36;;;;;;;8.30;5.53;;;11.60;99.40;;;;;;5096398;28;20031;-87
2021/09/05 04:22:03;;;;;;;9.65;5.45;;;11.60;99.20;;;;;;5094809;28;20383;-88
2021/09/05 04:24:29;;;;;;;9.95;5.50;;;11.70;99.20;;;;;;5092936;28;20107;-88
2021/09/05 04:26:55;;;;;;;7.07;4.93;;;11.80;98.90;;;;;;5094551;28;20051;-87
2021/09/05 04:29:20;;;;;;;8.65;5.57;;;11.90;98.70;;;;;;5096378;28;20104;-87
2021/09/05 04:31:47;;;;;;;9.40;5.60;;;12.00;98.60;;;;;;5092958;28;20115;-86
2021/09/05 04:34:13;;;;;;;8.57;5.50;;;12.10;98.70;;;;;;5096025;28;20020;-88
2021/09/05 04:36:38;;;;;;;9.32;5.72;;;12.10;98.60;;;;;;5094729;28;20030;-88
2021/09/05 04:39:05;;;;;;;12.93;6.30;;;12.20;98.50;;;;;;5095236;28;20028;-85
2021/09/05 04:41:31;;;;;;;11.95;6.90;;;12.30;98.60;;;;;;5095616;28;20051;-85
2021/09/05 04:43:57;;;;;;;9.23;5.75;;;12.40;98.20;;;;;;5095437;28;20063;-88
2021/09/05 04:46:22;;;;;;;8.43;5.25;;;12.40;98.20;;;;;;5094425;28;20071;-88
2021/09/05 04:48:48;;;;;;;9.57;5.47;;;12.50;98.20;;;;;;5094262;28;20024;-88
2021/09/05 04:51:14;;;;;;;8.43;5.95;;;12.50;98.20;;;;;;5094471;28;20034;-88
2021/09/05 04:53:40;;;;;;;8.45;5.50;;;12.60;97.90;;;;;;5095706;28;20060;-88
2021/09/05 04:56:06;;;;;;;9.70;5.95;;;12.70;98.00;;;;;;5095763;28;20024;-87
2021/09/05 04:58:31;;;;;;;8.65;5.50;;;12.70;98.10;;;;;;5094416;28;20050;-88
2021/09/05 05:00:57;;;;;;;7.47;5.40;;;12.70;98.30;;;;;;5095202;28;20043;-87
2021/09/05 05:03:23;;;;;;;8.95;5.63;;;12.80;98.30;;;;;;5095316;28;20020;-85
2021/09/05 05:05:49;;;;;;;6.70;5.45;;;12.90;98.00;;;;;;5055840;28;20040;-88
2021/09/05 05:08:15;;;;;;;8.63;5.10;;;13.10;96.80;;;;;;5053742;28;20112;-87
2021/09/05 05:10:40;;;;;;;8.60;4.57;;;13.10;96.70;;;;;;5082576;28;20494;-85
2021/09/05 05:13:06;;;;;;;6.95;4.68;;;13.10;96.30;;;;;;5082170;28;20028;-85
2021/09/05 05:15:32;;;;;;;9.68;4.75;;;13.10;96.00;;;;;;5074538;28;20443;-85
2021/09/05 05:17:57;;;;;;;6.45;4.45;;;13.20;95.60;;;;;;5073299;28;20028;-84
2021/09/05 05:20:23;;;;;;;6.57;4.80;;;13.20;95.40;;;;;;5072947;28;20139;-87
2021/09/05 05:22:49;;;;;;;7.20;5.28;;;13.20;95.30;;;;;;5073121;28;20116;-88
2021/09/05 05:25:15;;;;;;;7.97;4.72;;;13.30;94.90;;;;;;5089522;28;20019;-86
2021/09/05 05:27:40;;;;;;;9.98;5.05;;;13.40;94.50;;;;;;5093489;28;20031;-84
2021/09/05 05:30:07;;;;;;;6.57;4.88;;;13.40;94.00;;;;;;5094635;28;20103;-85
2021/09/05 05:32:33;;;;;;;8.30;4.90;;;13.40;94.20;;;;;;5093210;28;20024;-86
2021/09/05 05:34:59;;;;;;;7.72;5.45;;;13.50;94.30;;;;;;5093255;28;20394;-86
2021/09/05 05:37:24;;;;;;;8.05;5.50;;;13.50;93.70;;;;;;5093223;28;20054;-84
2021/09/05 05:39:50;;;;;;;7.45;5.57;;;13.60;93.50;;;;;;5094361;28;20486;-84
2021/09/05 05:42:16;;;;;;;7.97;5.30;;;13.70;93.20;;;;;;5078203;28;20101;-85
2021/09/05 05:44:41;;;;;;;7.03;5.05;;;13.70;92.40;;;;;;5072825;28;20040;-85
2021/09/05 05:47:07;;;;;;;7.85;4.75;;;13.70;92.10;;;;;;5072921;28;20028;-84
2021/09/05 05:49:35;;;;;;;6.43;4.18;;;13.70;92.30;;;;;;5073946;28;20024;-82
2021/09/05 05:52:01;;;;;;;6.03;4.40;;;13.70;91.90;;;;;;5073763;28;20109;-85
2021/09/05 05:54:27;;;;;;;6.03;3.92;;;13.70;91.90;;;;;;5073926;28;20025;-86
2021/09/05 05:56:53;;;;;;;7.38;4.28;;;13.70;92.00;;;;;;5072568;28;20028;-84
2021/09/05 05:59:18;;;;;;;6.90;4.57;;;13.70;92.40;;;;;;5072480;28;20501;-84
2021/09/05 06:01:44;;;;;;;6.45;4.10;;;13.80;92.30;;;;;;5075619;28;20561;-85
2021/09/05 06:04:10;;;;;;;5.53;3.65;;;13.90;92.10;;;;;;5092026;28;20024;-82
2021/09/05 06:06:38;;;;;;;4.72;3.35;;;13.90;92.00;;;;;;5094015;28;20018;-84
2021/09/05 06:09:04;;;;;;;5.38;3.08;;;13.90;91.30;;;;;;5092700;28;20016;-83
2021/09/05 06:11:30;;;;;;;4.15;3.00;;;14.00;91.40;;;;;;5092209;28;20089;-82
2021/09/05 06:13:55;;;;;;;3.92;2.88;;;14.00;90.60;;;;;;5072612;28;20085;-83
2021/09/05 06:16:21;;;;;;;3.30;2.75;;;14.00;90.40;;;;;;5073418;28;20028;-80
2021/09/05 06:18:47;;;;;;;4.30;2.85;;;14.00;90.10;;;;;;5074873;28;20054;-81
2021/09/05 06:21:12;;;;;;;7.50;3.05;;;14.00;90.10;;;;;;5073325;28;20049;-81
2021/09/05 06:23:38;;;;;;;5.70;3.10;;;14.10;90.20;;;;;;5073856;28;20370;-81
2021/09/05 06:26:49;;;;;;;5.13;3.63;;;14.10;90.30;;;;;;5073535;28;20032;-83
2021/09/05 06:29:15;;;;;;;6.32;3.25;;;14.20;88.80;;;;;;5076367;28;20031;-85
2021/09/05 06:31:41;;;;;;;6.45;3.42;;;14.30;87.30;;;;;;5078900;28;20029;-84
2021/09/05 06:34:06;;;;;;;4.32;3.45;;;14.30;88.00;;;;;;5072010;28;20025;-80
2021/09/05 06:36:32;;;;;;;6.50;3.70;;;14.30;88.10;;;;;;5073295;28;20028;-80
2021/09/05 06:38:58;;;;;;;5.13;3.63;;;14.30;89.60;;;;;;5080182;28;20040;-81
2021/09/05 06:41:24;;;;;;;4.88;3.50;;;14.40;88.20;;;;;;5093378;28;20020;-81
2021/09/05 06:43:49;;;;;;;5.15;3.50;;;14.40;88.40;;;;;;5093364;28;20020;-79
2021/09/05 06:46:15;;;;;;;5.15;3.15;;;14.50;86.40;;;;;;5088644;28;20052;-79
2021/09/05 06:48:42;;;;;;;7.07;4.00;;;14.50;86.20;;;;;;5073503;28;20476;-81
2021/09/05 06:51:08;;;;;;;4.55;3.10;;;14.60;85.40;;;;;;5073480;28;20070;-79
2021/09/05 06:53:34;;;;;;;6.72;3.42;;;14.50;87.20;;;;;;5086873;28;20071;-79
2021/09/05 06:56:00;;;;;;;4.65;3.22;;;14.50;86.50;;;;;;5093380;28;20052;-80
2021/09/05 06:58:26;;;;;;;4.13;3.22;;;14.60;86.00;;;;;;5093641;28;20463;-79
2021/09/05 07:00:52;;;;;;;5.07;2.80;;;14.50;86.00;;;;;;5083523;28;20029;-78
2021/09/05 07:03:17;;;;;;;16.13;5.93;;;14.70;82.40;;;;;;5073070;28;20099;-80
2021/09/05 07:05:43;;;;;;;5.15;3.20;;;14.70;83.00;;;;;;5083833;28;20104;-79
2021/09/05 07:08:09;;;;;;;5.95;3.10;;;14.70;82.80;;;;;;5073197;28;20099;-84
2021/09/05 07:10:36;;;;;;;3.88;2.80;;;14.70;82.50;;;;;;5083261;28;20051;-80
2021/09/05 07:13:01;;;;;;;5.90;2.72;;;14.70;83.00;;;;;;5091413;28;20028;-82
2021/09/05 07:15:27;;;;;;;3.72;2.80;;;14.60;83.00;;;;;;5093543;28;20076;-81
2021/09/05 07:17:53;;;;;;;5.47;2.85;;;14.70;83.30;;;;;;5093575;28;20028;-83
2021/09/05 07:20:19;;;;;;;3.00;2.38;;;14.80;81.90;;;;;;5082407;28;20048;-80
2021/09/05 07:22:44;;;;;;;5.97;2.70;;;14.80;81.00;;;;;;5072909;28;20482;-80
2021/09/05 07:25:11;;;;;;;3.17;2.53;;;14.90;78.70;;;;;;5076313;28;20059;-82
2021/09/05 07:27:37;;;;;;;7.22;3.97;;;14.80;79.70;;;;;;5080343;28;20017;-82
2021/09/05 07:30:07;;;;;;;3.92;2.80;;;14.80;81.00;;;;;;5074814;28;20028;-81
2021/09/05 07:32:33;;;;;;;;;;;14.80;81.90;;;;;;5094029;28;20053;-82
2021/09/05 07:34:59;;;;;;;6.47;3.03;;;14.80;82.10;;;;;;5096686;28;19994;-82
2021/09/05 07:37:24;;;;;;;4.18;3.33;;;14.90;82.10;;;;;;5095357;28;20019;-82
2021/09/05 07:39:50;;;;;;;4.75;2.42;;;15.00;80.50;;;;;;5095115;28;20500;-82
2021/09/05 07:42:16;;;;;;;2.38;2.10;;;15.10;77.60;;;;;;5096455;28;20028;-82
2021/09/05 07:44:41;;;;;;;2.08;1.88;;;15.20;77.20;;;;;;5091103;28;20027;-81
2021/09/05 07:47:07;;;;;;;3.22;2.28;;;15.20;76.30;;;;;;5076515;28;20024;-82
2021/09/05 07:49:33;;;;;;;4.93;2.63;;;15.30;74.20;;;;;;5074831;28;20051;-83
2021/09/05 07:51:58;;;;;;;2.53;2.20;;;15.30;74.20;;;;;;5076112;28;20415;-82
2021/09/05 07:54:24;;;;;;;4.47;2.28;;;15.30;74.50;;;;;;5076011;28;20075;-80
2021/09/05 07:56:50;;;;;;;2.75;2.00;;;15.30;74.30;;;;;;5076024;28;20028;-83
2021/09/05 07:59:16;;;;;;;3.08;2.30;;;15.40;72.20;;;;;;5074550;28;20029;-82
2021/09/05 17:04:59;;;;;;;11.18;6.43;;;13.90;70.30;;;;;;5111182;27;20390;-82
2021/09/05 17:07:25;;;;;;;10.10;5.03;;;13.50;71.80;;;;;;5109933;28;20039;-83
2021/09/05 17:09:50;;;;;;;9.68;4.85;;;13.40;73.00;;;;;;5111020;28;20027;-83
2021/09/05 17:12:16;;;;;;;8.20;4.57;;;13.40;73.70;;;;;;5109803;28;20114;-82
2021/09/05 17:14:43;;;;;;;8.27;4.10;;;13.40;74.10;;;;;;5111201;28;20024;-82
2021/09/05 17:17:09;;;;;;;12.25;7.03;;;13.50;74.40;;;;;;5110520;28;20012;-82
2021/09/05 17:19:35;;;;;;;9.50;4.80;;;13.60;74.60;;;;;;5109868;28;20030;-81
2021/09/05 17:22:01;;;;;;;4.75;3.10;;;13.70;74.70;;;;;;5117555;28;20081;-81
2021/09/05 17:24:27;;;;;;;5.47;3.08;;;13.90;72.70;;;;;;5131593;28;20030;-81
2021/09/05 17:26:53;;;;;;;4.45;2.90;;;14.20;71.20;;;;;;5120082;28;20386;-77
2021/09/05 17:29:19;;;;;;;5.57;3.30;;;14.40;70.50;;;;;;5110441;28;20024;-80
2021/09/05 17:31:45;;;;;;;15.48;9.30;;;14.40;70.10;;;;;;5111175;28;20495;-78
2021/09/05 17:34:11;;;;;;;7.43;4.65;;;14.50;70.60;;;;;;5110934;28;20108;-76
2021/09/05 17:36:36;;;;;;;5.85;3.20;;;14.50;70.90;;;;;;5111227;28;20030;-80
2021/09/05 17:39:06;;;;;;;7.45;4.32;;;14.60;70.50;;;;;;5110401;28;20027;-79
2021/09/05 17:41:33;;;;;;;6.93;3.38;;;14.60;70.50;;;;;;5109559;28;20481;-76
2021/09/05 17:43:58;;;;;;;4.18;2.90;;;14.50;70.10;;;;;;5110579;28;20036;-77
2021/09/05 17:46:24;;;;;;;4.80;2.88;;;14.50;70.60;;;;;;5110626;28;20348;-77
2021/09/05 17:48:50;;;;;;;5.10;2.80;;;14.50;70.40;;;;;;5110470;28;20043;-77
2021/09/05 17:51:15;;;;;;;4.35;2.85;;;14.50;70.70;;;;;;5110935;28;20462;-76
2021/09/05 17:53:41;;;;;;;5.68;2.88;;;14.40;71.00;;;;;;5110653;28;20043;-78
2021/09/05 17:56:07;;;;;;;4.32;2.90;;;14.40;71.20;;;;;;5110160;28;20028;-79
2021/09/05 17:58:33;;;;;;;3.92;2.67;;;14.60;70.70;;;;;;5110174;28;20031;-78
2021/09/05 18:00:59;;;;;;;4.05;2.55;;;14.60;70.30;;;;;;5110465;28;20027;-78
2021/09/05 18:03:25;;;;;;;2.40;2.20;;;14.70;70.10;;;;;;5110052;28;20052;-79
2021/09/05 18:05:50;;;;;;;3.55;2.50;;;14.80;69.10;;;;;;5110428;28;20031;-78
2021/09/05 18:08:16;;;;;;;3.28;2.22;;;14.80;69.20;;;;;;5110303;28;20347;-82
2021/09/05 18:10:42;;;;;;;3.88;2.53;;;15.00;67.60;;;;;;5110764;28;20568;-77
2021/09/05 18:13:09;;;;;;;4.43;2.35;;;14.90;67.20;;;;;;5096061;28;20470;-75
2021/09/05 18:15:35;;;;;;;3.92;2.50;;;14.90;67.10;;;;;;5080958;28;20047;-76
2021/09/05 18:18:01;;;;;;;4.00;2.30;;;14.80;67.50;;;;;;5076258;28;20534;-76
2021/09/05 18:20:29;;;;;;;3.38;2.47;;;14.80;67.70;;;;;;5076120;28;20021;-77
2021/09/05 18:22:55;;;;;;;2.88;2.22;;;14.80;67.80;;;;;;5089817;28;20089;-76
2021/09/05 18:25:21;;;;;;;3.28;2.13;;;14.70;67.60;;;;;;5096198;28;20031;-76
2021/09/05 18:27:47;;;;;;;3.35;2.25;;;14.60;68.10;;;;;;5096244;28;20024;-77
2021/09/05 18:30:13;;;;;;;2.53;2.15;;;14.60;68.60;;;;;;5095951;28;20024;-75
2021/09/05 18:32:39;;;;;;;4.15;2.80;;;14.50;69.20;;;;;;5095644;28;20026;-76
2021/09/05 18:35:05;;;;;;;4.30;3.10;;;14.50;69.50;;;;;;5095753;28;20413;-75
2021/09/05 18:37:31;;;;;;;3.90;2.90;;;14.50;69.40;;;;;;5095803;28;20069;-75
2021/09/05 18:39:57;;;;;;;6.25;3.30;;;14.50;69.60;;;;;;5095868;28;20024;-77
2021/09/05 18:42:24;;;;;;;5.53;2.80;;;14.60;69.60;;;;;;5095859;28;20059;-75
2021/09/05 18:44:49;;;;;;;6.53;2.95;;;14.60;70.10;;;;;;5094916;28;20447;-74
2021/09/05 18:47:15;;;;;;;4.65;3.35;;;14.70;70.10;;;;;;5094219;28;20097;-75
2021/09/05 18:49:41;;;;;;;5.53;3.00;;;14.70;69.70;;;;;;5095694;28;20028;-75
2021/09/05 18:52:06;;;;;;;3.42;2.67;;;14.80;69.80;;;;;;5095778;28;20031;-75
2021/09/05 18:54:33;;;;;;;4.32;3.03;;;14.80;69.40;;;;;;5095124;28;20032;-75
2021/09/05 18:56:58;;;;;;;3.58;2.60;;;14.80;69.50;;;;;;5095639;28;20020;-75
2021/09/05 18:59:24;;;;;;;4.55;2.70;;;14.90;69.30;;;;;;5095608;28;20390;-76
2021/09/05 19:01:50;;;;;;;3.25;2.72;;;14.90;69.20;;;;;;5095566;28;20383;-75
2021/09/05 19:04:45;;;;;;;3.95;2.80;;;14.80;68.90;;;;;;5131394;27;20445;-76
2021/09/05 19:07:12;;;;;;;3.90;2.88;;;14.80;69.10;;;;;;5131926;28;20031;-76
2021/09/05 19:09:37;;;;;;;4.28;2.75;;;14.80;69.00;;;;;;5130330;28;20027;-77
2021/09/05 19:12:03;;;;;;;3.00;2.40;;;14.80;69.10;;;;;;5131911;28;20026;-77
2021/09/05 19:14:29;;;;;;;3.08;2.17;;;14.70;69.30;;;;;;5131276;28;20020;-76
2021/09/05 19:16:55;;;;;;;3.90;2.72;;;14.60;69.70;;;;;;5131582;28;20106;-79
2021/09/05 19:19:20;;;;;;;3.15;2.60;;;14.80;69.70;;;;;;5131521;28;20025;-78
2021/09/05 19:21:46;;;;;;;4.15;2.90;;;14.70;69.70;;;;;;5131619;28;20061;-78
2021/09/05 19:24:12;;;;;;;4.38;2.95;;;14.60;70.30;;;;;;5131255;28;20062;-77
2021/09/05 19:26:37;;;;;;;7.15;2.78;;;14.60;70.60;;;;;;5131390;28;20031;-78
2021/09/05 19:29:03;;;;;;;4.63;3.08;;;14.70;70.40;;;;;;5131521;28;20019;-79
2021/09/05 19:31:29;;;;;;;3.67;2.65;;;14.70;70.50;;;;;;5131452;28;20051;-78
2021/09/05 19:33:54;;;;;;;2.83;2.40;;;14.60;70.80;;;;;;5131171;28;20015;-79
2021/09/05 19:36:20;;;;;;;4.45;2.65;;;14.80;70.50;;;;;;5130007;28;20466;-78
2021/09/05 19:38:46;;;;;;;2.60;2.30;;;14.60;70.70;;;;;;5131176;28;20461;-76
2021/09/05 19:41:12;;;;;;;7.05;2.30;;;14.50;71.50;;;;;;5131084;28;20145;-78
2021/09/05 19:43:38;;;;;;;3.47;2.40;;;14.40;72.20;;;;;;5131004;28;20534;-77
2021/09/05 19:46:05;;;;;;;2.83;2.25;;;14.30;72.30;;;;;;5130591;28;20031;-77
2021/09/05 19:48:34;;;;;;;5.63;3.22;;;14.30;72.10;;;;;;5131081;28;20030;-77
2021/09/05 19:51:00;;;;;;;3.53;2.63;;;14.20;72.50;;;;;;5130757;28;20024;-77
2021/09/05 19:53:27;;;;;;;3.47;2.47;;;14.10;73.40;;;;;;5129600;28;20027;-77
2021/09/05 19:55:52;;;;;;;3.45;2.35;;;14.00;74.00;;;;;;5130415;28;20046;-77
2021/09/05 19:58:18;;;;;;;3.08;2.20;;;13.90;74.40;;;;;;5130640;28;20106;-77
2021/09/05 20:00:44;;;;;;;5.80;2.38;;;13.80;74.80;;;;;;5130648;28;20553;-78
2021/09/05 20:03:10;;;;;;;3.88;2.10;;;13.80;75.20;;;;;;5130419;28;20367;-77
2021/09/05 20:05:35;;;;;;;4.78;2.50;;;13.80;75.60;;;;;;5130248;28;20095;-77
2021/09/05 20:08:01;;;;;;;4.70;2.40;;;13.70;76.00;;;;;;5130568;28;20059;-77
2021/09/05 20:10:28;;;;;;;4.78;2.90;;;13.70;76.40;;;;;;5130409;28;20266;-77
2021/09/05 20:12:54;;;;;;;3.97;2.50;;;13.60;77.00;;;;;;5130504;28;20092;-77
2021/09/05 20:15:19;;;;;;;3.83;2.58;;;13.60;77.40;;;;;;5121431;28;20370;-77
2021/09/05 20:17:45;;;;;;;4.40;3.00;;;13.60;77.60;;;;;;5116374;28;20339;-76
2021/09/05 20:20:12;;;;;;;5.32;2.80;;;13.70;77.60;;;;;;5116558;28;20035;-78
2021/09/05 20:22:38;;;;;;;5.35;3.13;;;13.70;77.80;;;;;;5115340;28;20398;-77
2021/09/05 20:25:07;;;;;;;3.63;2.97;;;13.60;78.00;;;;;;5116305;28;20118;-77
2021/09/05 20:27:37;;;;;;;4.05;2.42;;;13.60;78.50;;;;;;5115731;28;20020;-78
2021/09/05 20:30:04;;;;;;;4.95;2.70;;;13.60;78.40;;;;;;5115212;28;20031;-82
2021/09/05 20:32:30;;;;;;;3.78;2.80;;;13.60;78.30;;;;;;5116739;28;20020;-78
2021/09/05 20:34:59;;;;;;;3.00;2.70;;;13.60;78.50;;;;;;5114818;28;20153;-78
2021/09/05 20:37:25;;;;;;;3.97;2.70;;;13.50;79.00;;;;;;5116451;28;20019;-77
2021/09/05 20:39:51;;;;;;;3.33;2.65;;;13.50;79.30;;;;;;5116321;28;20348;-78
2021/09/05 20:42:16;;;;;;;3.53;2.53;;;13.50;79.60;;;;;;5116302;28;20023;-78
2021/09/05 20:44:42;;;;;;;6.03;2.72;;;13.40;79.60;;;;;;5116135;28;20052;-78
2021/09/05 20:47:08;;;;;;;4.53;2.90;;;13.40;79.40;;;;;;5115758;28;20035;-76
2021/09/05 20:49:35;;;;;;;4.40;2.55;;;13.30;79.80;;;;;;5115011;28;20024;-76
2021/09/05 20:52:03;;;;;;;5.80;2.85;;;13.30;80.20;;;;;;5116029;28;20045;-76
2021/09/05 20:54:30;;;;;;;3.80;2.80;;;13.20;80.50;;;;;;5116019;28;20069;-76
2021/09/05 20:56:55;;;;;;;5.28;2.78;;;13.20;80.80;;;;;;5115883;28;20023;-76
2021/09/05 20:59:21;;;;;;;3.42;2.65;;;13.20;82.00;;;;;;5115432;28;20024;-76
2021/09/05 21:01:47;;;;;;;3.60;2.67;;;13.10;81.50;;;;;;5115915;28;20495;-79
2021/09/05 21:04:13;;;;;;;4.97;2.50;;;13.20;81.50;;;;;;5115641;28;20128;-77
2021/09/05 21:06:39;;;;;;;4.47;2.58;;;13.10;81.50;;;;;;5116005;28;20461;-82
2021/09/05 21:09:04;;;;;;;5.25;3.10;;;13.20;82.10;;;;;;5115900;28;20053;-77
2021/09/05 21:11:30;;;;;;;5.80;2.63;;;13.20;81.80;;;;;;5115614;28;20031;-76
2021/09/05 21:13:56;;;;;;;2.85;2.30;;;13.20;81.60;;;;;;5115753;28;20675;-78
2021/09/05 21:16:22;;;;;;;3.60;2.22;;;13.10;81.80;;;;;;5115812;28;20374;-77
2021/09/05 21:18:47;;;;;;;3.25;2.30;;;13.10;82.10;;;;;;5115750;28;20389;-77
2021/09/05 21:21:14;;;;;;;3.20;2.50;;;13.10;82.00;;;;;;5115724;28;20031;-76
2021/09/05 21:23:40;;;;;;;4.45;2.47;;;13.10;81.30;;;;;;5115129;28;20470;-75
2021/09/05 21:26:06;;;;;;;3.40;2.50;;;13.00;81.40;;;;;;5114714;28;20046;-77
2021/09/05 21:28:32;;;;;;;2.92;2.25;;;13.00;81.90;;;;;;5115285;28;20470;-76
2021/09/05 21:30:57;;;;;;;4.80;2.50;;;12.90;82.20;;;;;;5115275;28;20054;-77
2021/09/05 21:33:23;;;;;;;4.78;2.80;;;13.00;82.50;;;;;;5115387;28;20343;-77
2021/09/05 21:35:49;;;;;;;5.15;2.70;;;13.00;82.40;;;;;;5115322;28;20055;-77
2021/09/05 21:38:15;;;;;;;4.80;2.60;;;12.90;82.90;;;;;;5115461;28;20032;-77
2021/09/05 21:40:40;;;;;;;4.30;3.00;;;12.80;83.40;;;;;;5115167;28;20028;-77
2021/09/05 21:43:06;;;;;;;4.78;3.30;;;12.80;84.10;;;;;;5114845;28;20481;-76